createdAt,value
2022-08-26T07:10:26.183Z,668.00
2022-08-26T07:11:24.053Z,618.00
2022-08-26T07:12:25.586Z,622.00
2022-08-26T07:13:31.093Z,634.00
2022-08-26T07:14:24.549Z,639.00
2022-08-26T07:15:31.088Z,636.00
2022-08-26T07:16:25.094Z,632.00
2022-08-26T07:17:25.918Z,628.00
2022-08-26T07:18:26.228Z,623.00
2022-08-26T07:19:30.167Z,621.00
2022-08-26T07:20:24.270Z,616.00
2022-08-26T07:21:24.297Z,611.00
2022-08-26T07:22:24.405Z,608.00
2022-08-26T07:23:26.152Z,603.00
2022-08-26T07:24:28.516Z,601.00
2022-08-26T07:25:27.251Z,599.00
2022-08-26T07:26:26.174Z,595.00
2022-08-26T07:27:30.837Z,593.00
2022-08-26T07:28:24.460Z,592.00
2022-08-26T07:29:24.483Z,588.00
2022-08-26T07:30:27.946Z,587.00
2022-08-26T07:31:36.089Z,587.00
2022-08-26T07:32:30.152Z,584.00
2022-08-26T07:33:25.538Z,580.00
2022-08-26T07:34:24.585Z,578.00
2022-08-26T07:35:25.825Z,577.00
2022-08-26T07:37:53.893Z,575.00
2022-08-26T07:38:54.374Z,577.00
2022-08-26T07:39:54.414Z,576.00
2022-08-26T07:40:57.295Z,574.00
2022-08-26T07:41:51.735Z,574.00
2022-08-26T07:42:51.543Z,571.00
2022-08-26T07:43:50.699Z,568.00
2022-08-26T07:44:55.684Z,566.00
2022-08-26T07:45:54.526Z,564.00
2022-08-26T07:46:53.302Z,561.00
2022-08-26T07:47:50.660Z,562.00
2022-08-26T07:48:51.454Z,560.00
2022-08-26T07:49:53.002Z,562.00
2022-08-26T07:50:50.907Z,560.00
2022-08-26T07:51:50.815Z,557.00
2022-08-26T07:52:53.083Z,555.00
2022-08-26T07:53:52.820Z,556.00
2022-08-26T07:54:50.839Z,555.00
2022-08-26T07:55:50.989Z,555.00
2022-08-26T07:56:59.940Z,555.00
2022-08-26T07:57:50.900Z,556.00
2022-08-26T07:58:51.451Z,554.00
2022-08-26T07:59:51.498Z,554.00
2022-08-26T08:00:53.136Z,553.00
2022-08-26T08:01:51.987Z,550.00
2022-08-26T08:02:52.721Z,548.00
2022-08-26T08:03:51.949Z,553.00
2022-08-26T08:04:50.990Z,550.00
2022-08-26T08:05:51.383Z,555.00
2022-08-26T08:06:54.891Z,551.00
2022-08-26T08:07:53.484Z,555.00
2022-08-26T08:08:54.829Z,555.00
2022-08-26T08:09:59.737Z,554.00
2022-08-26T08:10:51.124Z,556.00
2022-08-26T08:11:52.943Z,555.00
2022-08-26T08:12:51.070Z,557.00
2022-08-26T08:13:56.438Z,557.00
2022-08-26T08:14:54.236Z,556.00
2022-08-26T08:15:52.024Z,561.00
2022-08-26T08:16:54.444Z,558.00
2022-08-26T08:17:54.834Z,559.00
2022-08-26T08:18:51.298Z,558.00
2022-08-26T08:19:52.327Z,556.00
2022-08-26T08:21:04.819Z,555.00
2022-08-26T08:21:52.306Z,549.00
2022-08-26T08:22:51.257Z,548.00
2022-08-26T08:23:53.560Z,546.00
2022-08-26T08:24:53.123Z,545.00
2022-08-26T08:25:52.320Z,544.00
2022-08-26T08:26:54.515Z,541.00
2022-08-26T08:27:54.299Z,540.00
2022-08-26T08:28:53.656Z,541.00
2022-08-26T08:29:51.429Z,540.00
2022-08-26T08:30:51.582Z,540.00
2022-08-26T08:31:56.525Z,541.00
2022-08-26T08:32:51.419Z,542.00
2022-08-26T08:33:55.681Z,544.00
2022-08-26T08:34:51.637Z,542.00
2022-08-26T08:35:52.713Z,542.00
2022-08-26T08:36:53.264Z,538.00
2022-08-26T08:37:51.501Z,537.00
2022-08-26T08:38:52.762Z,538.00
2022-08-26T08:39:52.569Z,538.00
2022-08-26T08:40:54.837Z,538.00
2022-08-26T08:41:52.535Z,538.00
2022-08-26T08:43:58.141Z,539.00
2022-08-26T08:44:53.466Z,540.00
2022-08-26T08:45:51.717Z,538.00
2022-08-26T08:46:51.704Z,540.00
2022-08-26T08:47:51.772Z,538.00
2022-08-26T08:48:52.749Z,538.00
2022-08-26T08:49:56.505Z,537.00
2022-08-26T08:50:51.805Z,535.00
2022-08-26T08:51:53.833Z,531.00
2022-08-26T08:52:51.995Z,534.00
2022-08-26T08:53:54.857Z,535.00
2022-08-26T08:54:52.843Z,532.00
2022-08-26T08:55:53.833Z,535.00
2022-08-26T08:56:53.256Z,537.00
2022-08-26T08:57:54.502Z,538.00
2022-08-26T08:58:53.700Z,535.00
2022-08-26T08:59:54.238Z,532.00
2022-08-26T09:00:52.039Z,532.00
2022-08-26T09:01:54.339Z,531.00
2022-08-26T09:02:53.007Z,529.00
2022-08-26T09:03:54.998Z,529.00
2022-08-26T09:04:53.717Z,532.00
2022-08-26T09:05:53.241Z,533.00
2022-08-26T09:06:53.261Z,531.00
2022-08-26T09:07:52.964Z,532.00
2022-08-26T09:08:54.645Z,538.00
2022-08-26T09:09:52.236Z,534.00
2022-08-26T09:10:53.891Z,534.00
2022-08-26T09:11:54.653Z,533.00
2022-08-26T09:12:52.843Z,532.00
2022-08-26T09:13:53.282Z,531.00
2022-08-26T09:14:52.244Z,530.00
2022-08-26T09:15:52.433Z,534.00
2022-08-26T09:16:53.648Z,534.00
2022-08-26T09:17:52.335Z,533.00
2022-08-26T09:18:54.193Z,534.00
2022-08-26T09:19:53.232Z,534.00
2022-08-26T09:20:55.109Z,538.00
2022-08-26T09:21:53.604Z,535.00
2022-08-26T09:22:52.513Z,534.00
2022-08-26T09:23:56.817Z,534.00
2022-08-26T09:24:55.129Z,534.00
2022-08-26T09:26:56.163Z,532.00
2022-08-26T09:27:52.978Z,535.00
2022-08-26T09:28:52.919Z,532.00
2022-08-26T09:29:54.869Z,534.00
2022-08-26T09:30:53.427Z,533.00
2022-08-26T09:33:19.762Z,524.00
2022-08-26T09:34:19.160Z,522.00
2022-08-26T09:35:18.701Z,526.00
2022-08-26T09:36:24.759Z,526.00
2022-08-26T09:37:18.746Z,527.00
2022-08-26T09:38:20.349Z,526.00
2022-08-26T09:39:18.928Z,528.00
2022-08-26T09:40:18.974Z,524.00
2022-08-26T09:41:21.524Z,523.00
2022-08-26T09:42:18.866Z,519.00
2022-08-26T09:43:22.893Z,522.00
2022-08-26T09:44:19.011Z,518.00
2022-08-26T09:45:19.983Z,515.00
2022-08-26T09:46:19.876Z,517.00
2022-08-26T09:47:19.583Z,513.00
2022-08-26T09:48:19.706Z,516.00
2022-08-26T09:49:19.584Z,517.00
2022-08-26T09:50:18.940Z,516.00
2022-08-26T09:51:24.071Z,517.00
2022-08-26T09:52:21.599Z,515.00
2022-08-26T09:53:20.949Z,516.00
2022-08-26T09:54:20.592Z,516.00
2022-08-26T09:55:19.008Z,515.00
2022-08-26T09:56:19.718Z,517.00
2022-08-26T09:57:19.327Z,516.00
2022-08-26T09:58:20.798Z,518.00
2022-08-26T09:59:19.128Z,517.00
2022-08-26T10:00:19.145Z,518.00
2022-08-26T10:01:19.495Z,517.00
2022-08-26T10:13:25.707Z,480.00
2022-08-26T10:14:26.067Z,496.00
2022-08-26T10:15:26.317Z,500.00
2022-08-26T10:16:28.701Z,506.00
2022-08-26T10:17:24.767Z,509.00
2022-08-26T10:18:28.726Z,511.00
2022-08-26T10:19:24.777Z,514.00
2022-08-26T10:20:25.647Z,515.00
2022-08-26T10:21:26.496Z,515.00
2022-08-26T10:22:27.717Z,515.00
2022-08-26T10:23:26.678Z,515.00
2022-08-26T10:24:26.418Z,519.00
2022-08-26T10:25:28.702Z,520.00
2022-08-26T10:26:24.822Z,519.00
2022-08-26T10:27:24.845Z,517.00
2022-08-26T10:28:26.758Z,519.00
2022-08-26T10:30:53.738Z,514.00
2022-08-26T10:31:51.391Z,511.00
2022-08-26T10:32:52.286Z,515.00
2022-08-26T10:33:52.532Z,513.00
2022-08-26T10:34:50.936Z,512.00
2022-08-26T10:35:52.729Z,513.00
2022-08-26T10:37:13.761Z,513.00
2022-08-26T10:37:51.950Z,515.00
2022-08-26T10:38:51.940Z,514.00
2022-08-26T10:39:51.919Z,514.00
2022-08-26T10:40:51.045Z,512.00
2022-08-26T10:41:53.423Z,512.00
2022-08-26T10:42:53.319Z,513.00
2022-08-26T10:43:53.553Z,514.00
2022-08-26T10:44:52.042Z,514.00
2022-08-26T10:45:51.174Z,513.00
2022-08-26T10:46:51.474Z,514.00
2022-08-26T10:47:51.122Z,512.00
2022-08-26T10:48:52.420Z,512.00
2022-08-26T10:49:51.148Z,508.00
2022-08-26T10:50:51.193Z,510.00
2022-08-26T10:51:51.177Z,516.00
2022-08-26T10:52:51.201Z,511.00
2022-08-26T10:53:52.986Z,514.00
2022-08-26T10:54:51.268Z,515.00
2022-08-26T10:55:53.066Z,515.00
2022-08-26T10:56:51.371Z,515.00
2022-08-26T10:57:51.418Z,514.00
2022-08-26T10:58:51.386Z,512.00
2022-08-26T10:59:53.160Z,510.00
2022-08-26T11:00:51.552Z,512.00
2022-08-26T11:01:52.532Z,513.00
2022-08-26T11:02:53.969Z,514.00
2022-08-26T11:03:55.301Z,514.00
2022-08-26T11:04:53.637Z,516.00
2022-08-26T11:05:51.660Z,515.00
2022-08-26T11:06:52.543Z,513.00
2022-08-26T11:07:51.709Z,512.00
2022-08-26T11:08:52.934Z,510.00
2022-08-26T11:09:51.673Z,506.00
2022-08-26T11:10:51.715Z,500.00
2022-08-26T11:11:51.780Z,500.00
2022-08-26T11:12:53.874Z,505.00
2022-08-26T11:13:53.527Z,510.00
2022-08-26T11:14:59.420Z,509.00
2022-08-26T11:15:54.995Z,508.00
2022-08-26T11:16:56.452Z,511.00
2022-08-26T11:17:52.148Z,505.00
2022-08-26T11:18:53.843Z,506.00
2022-08-26T11:20:03.884Z,502.00
2022-08-26T11:20:51.982Z,496.00
2022-08-26T11:21:51.936Z,493.00
2022-08-26T11:22:52.687Z,493.00
2022-08-26T11:23:54.525Z,492.00
2022-08-26T11:24:55.818Z,492.00
2022-08-26T11:25:52.068Z,494.00
2022-08-26T11:26:56.150Z,493.00
2022-08-26T11:27:52.074Z,489.00
2022-08-26T11:28:52.575Z,488.00
2022-08-26T11:29:53.868Z,491.00
2022-08-26T11:30:57.886Z,492.00
2022-08-26T11:31:52.273Z,489.00
2022-08-26T11:32:52.231Z,492.00
2022-08-26T11:33:55.481Z,492.00
2022-08-26T11:34:52.260Z,490.00
2022-08-26T11:35:53.221Z,490.00
2022-08-26T11:36:52.339Z,491.00
2022-08-26T11:37:52.282Z,490.00
2022-08-26T11:38:54.002Z,492.00
2022-08-26T11:39:55.202Z,494.00
2022-08-26T11:40:52.315Z,492.00
2022-08-26T11:41:52.649Z,490.00
2022-08-26T11:42:52.376Z,490.00
2022-08-26T11:43:55.558Z,496.00
2022-08-26T11:44:52.443Z,494.00
2022-08-26T11:45:52.479Z,497.00
2022-08-26T11:46:52.482Z,500.00
2022-08-26T11:47:54.205Z,505.00
2022-08-26T11:48:52.506Z,499.00
2022-08-26T11:49:52.542Z,495.00
2022-08-26T11:50:54.246Z,495.00
2022-08-26T11:51:52.576Z,495.00
2022-08-26T11:52:52.591Z,491.00
2022-08-26T11:53:52.618Z,488.00
2022-08-26T11:54:54.338Z,487.00
2022-08-26T11:55:52.648Z,487.00
2022-08-26T11:56:52.690Z,488.00
2022-08-26T11:57:54.401Z,491.00
2022-08-26T11:58:52.659Z,494.00
2022-08-26T11:59:54.370Z,485.00
2022-08-26T12:00:54.599Z,490.00
2022-08-26T12:01:52.711Z,503.00
2022-08-26T12:02:52.789Z,501.00
2022-08-26T12:03:52.876Z,507.00
2022-08-26T12:04:54.452Z,506.00
2022-08-26T12:05:52.762Z,498.00
2022-08-26T12:06:54.526Z,498.00
2022-08-26T12:07:53.110Z,495.00
2022-08-26T12:08:52.809Z,480.00
2022-08-26T12:09:52.815Z,483.00
2022-08-26T12:10:54.531Z,495.00
2022-08-26T12:11:52.846Z,514.00
2022-08-26T12:12:54.565Z,493.00
2022-08-26T12:13:52.942Z,497.00
2022-08-26T12:14:52.865Z,491.00
2022-08-26T12:15:55.836Z,475.00
2022-08-26T12:16:52.980Z,492.00
2022-08-26T12:17:54.584Z,481.00
2022-08-26T12:18:52.900Z,493.00
2022-08-26T12:19:52.939Z,496.00
2022-08-26T12:20:54.658Z,502.00
2022-08-26T12:21:52.988Z,520.00
2022-08-26T12:22:54.719Z,512.00
2022-08-26T12:23:53.003Z,520.00
2022-08-26T12:24:53.030Z,501.00
2022-08-26T12:25:53.050Z,504.00
2022-08-26T12:26:54.791Z,498.00
2022-08-26T12:27:54.009Z,502.00
2022-08-26T12:28:53.179Z,504.00
2022-08-26T12:29:53.181Z,510.00
2022-08-26T12:30:53.212Z,504.00
2022-08-26T12:31:54.965Z,498.00
2022-08-26T12:32:57.890Z,500.00
2022-08-26T12:33:53.242Z,499.00
2022-08-26T12:34:53.295Z,492.00
2022-08-26T12:35:56.706Z,506.00
2022-08-26T12:36:55.029Z,479.00
2022-08-26T12:37:53.252Z,476.00
2022-08-26T12:38:58.082Z,489.00
2022-08-26T12:39:53.395Z,488.00
2022-08-26T12:40:55.070Z,474.00
2022-08-26T12:41:53.378Z,478.00
2022-08-26T12:42:53.426Z,487.00
2022-08-26T12:43:53.429Z,492.00
2022-08-26T12:44:54.629Z,492.00
2022-08-26T12:45:55.238Z,483.00
2022-08-26T12:46:53.487Z,494.00
2022-08-26T12:47:53.459Z,500.00
2022-08-26T12:48:55.176Z,490.00
2022-08-26T12:49:53.497Z,485.00
2022-08-26T12:50:55.208Z,498.00
2022-08-26T12:51:55.449Z,504.00
2022-08-26T12:52:53.548Z,506.00
2022-08-26T12:53:53.540Z,500.00
2022-08-26T12:54:56.720Z,508.00
2022-08-26T12:55:55.261Z,494.00
2022-08-26T12:56:55.526Z,498.00
2022-08-26T12:57:53.572Z,478.00
2022-08-26T12:59:53.635Z,489.00
2022-08-26T13:00:53.801Z,509.00
2022-08-26T13:01:55.536Z,509.00
2022-08-26T13:02:53.748Z,525.00
2022-08-26T13:03:55.439Z,514.00
2022-08-26T13:04:57.506Z,506.00
2022-08-26T13:05:53.774Z,506.00
2022-08-26T13:06:55.515Z,496.00
2022-08-26T13:07:53.776Z,507.00
2022-08-26T13:08:55.503Z,489.00
2022-08-26T13:09:53.835Z,503.00
2022-08-26T13:10:53.856Z,497.00
2022-08-26T13:11:53.876Z,502.00
2022-08-26T13:12:53.914Z,483.00
2022-08-26T13:13:55.627Z,485.00
2022-08-26T13:14:53.897Z,491.00
2022-08-26T13:15:55.664Z,492.00
2022-08-26T13:16:53.929Z,468.00
2022-08-26T13:17:53.957Z,479.00
2022-08-26T13:18:54.849Z,485.00
2022-08-26T13:19:58.030Z,490.00
2022-08-26T13:20:54.001Z,504.00
2022-08-26T13:21:57.160Z,500.00
2022-08-26T13:22:59.107Z,503.00
2022-08-26T13:23:54.049Z,501.00
2022-08-26T13:24:57.237Z,501.00
2022-08-26T13:25:54.075Z,499.00
2022-08-26T13:26:54.103Z,496.00
2022-08-26T13:27:54.082Z,499.00
2022-08-26T13:29:01.557Z,496.00
2022-08-26T13:29:57.314Z,502.00
2022-08-26T13:30:54.173Z,503.00
2022-08-26T13:31:54.167Z,504.00
2022-08-26T13:32:54.238Z,503.00
2022-08-26T13:33:54.257Z,496.00
2022-08-26T13:34:55.020Z,495.00
2022-08-26T13:35:56.246Z,494.00
2022-08-26T13:36:54.357Z,494.00
2022-08-26T13:37:54.336Z,491.00
2022-08-26T13:38:54.377Z,492.00
2022-08-26T13:39:56.182Z,490.00
2022-08-26T13:40:56.346Z,491.00
2022-08-26T13:41:54.498Z,488.00
2022-08-26T13:42:56.219Z,490.00
2022-08-26T13:43:54.539Z,487.00
2022-08-26T13:44:54.593Z,486.00
2022-08-26T13:45:54.579Z,485.00
2022-08-26T13:46:56.300Z,486.00
2022-08-26T13:47:54.590Z,486.00
2022-08-26T13:48:54.651Z,487.00
2022-08-26T13:49:54.622Z,487.00
2022-08-26T13:50:54.661Z,488.00
2022-08-26T13:51:56.394Z,487.00
2022-08-26T13:52:55.692Z,488.00
2022-08-26T13:53:54.733Z,490.00
2022-08-26T13:54:54.763Z,491.00
2022-08-26T13:55:56.484Z,489.00
2022-08-26T13:56:54.829Z,490.00
2022-08-26T13:57:54.819Z,491.00
2022-08-26T13:58:54.802Z,488.00
2022-08-26T13:59:54.814Z,490.00
2022-08-26T14:00:56.543Z,491.00
2022-08-26T14:01:54.837Z,491.00
2022-08-26T14:02:54.954Z,488.00
2022-08-26T14:03:54.921Z,491.00
2022-08-26T14:04:56.616Z,489.00
2022-08-26T14:05:54.944Z,490.00
2022-08-26T14:06:54.987Z,486.00
2022-08-26T14:07:55.035Z,484.00
2022-08-26T14:08:56.758Z,483.00
2022-08-26T14:09:55.077Z,484.00
2022-08-26T14:10:55.100Z,482.00
2022-08-26T14:11:55.424Z,483.00
2022-08-26T14:12:55.180Z,484.00
2022-08-26T14:13:56.919Z,486.00
2022-08-26T14:14:56.219Z,484.00
2022-08-26T14:15:55.321Z,481.00
2022-08-26T14:16:59.296Z,481.00
2022-08-26T14:17:55.311Z,483.00
2022-08-26T14:18:57.032Z,480.00
2022-08-26T14:19:55.381Z,481.00
2022-08-26T14:20:57.123Z,480.00
2022-08-26T14:21:55.403Z,483.00
2022-08-26T14:23:13.138Z,480.00
2022-08-26T14:24:00.313Z,477.00
2022-08-26T14:24:55.480Z,478.00
2022-08-26T14:25:57.194Z,478.00
2022-08-26T14:26:55.552Z,476.00
2022-08-26T14:27:55.545Z,476.00
2022-08-26T14:28:57.269Z,478.00
2022-08-26T14:29:55.622Z,477.00
2022-08-26T14:30:55.742Z,478.00
2022-08-26T14:31:55.695Z,478.00
2022-08-26T14:32:55.738Z,477.00
2022-08-26T14:33:57.458Z,479.00
2022-08-26T14:34:55.749Z,481.00
2022-08-26T14:35:55.709Z,481.00
2022-08-26T14:36:55.749Z,481.00
2022-08-26T14:37:57.466Z,481.00
2022-08-26T14:38:55.807Z,481.00
2022-08-26T14:39:55.875Z,480.00
2022-08-26T14:40:55.888Z,479.00
2022-08-26T14:41:55.913Z,480.00
2022-08-26T14:42:58.917Z,478.00
2022-08-26T14:43:57.862Z,474.00
2022-08-26T14:44:57.624Z,475.00
2022-08-26T14:45:55.970Z,474.00
2022-08-26T14:46:56.140Z,474.00
2022-08-26T14:47:56.060Z,472.00
2022-08-26T14:49:00.980Z,473.00
2022-08-26T14:49:58.013Z,472.00
2022-08-26T14:50:56.063Z,475.00
2022-08-26T14:51:56.106Z,478.00
2022-08-26T14:52:56.093Z,480.00
2022-08-26T14:53:56.136Z,479.00
2022-08-26T14:54:57.873Z,477.00
2022-08-26T14:55:57.055Z,477.00
2022-08-26T14:56:57.935Z,478.00
2022-08-26T14:57:57.121Z,479.00
2022-08-26T14:58:57.277Z,477.00
2022-08-26T14:59:57.187Z,477.00
2022-08-26T15:00:57.348Z,474.00
2022-08-26T15:01:58.290Z,473.00
2022-08-26T15:02:57.535Z,469.00
2022-08-26T15:03:57.312Z,472.00
2022-08-26T15:04:58.176Z,473.00
2022-08-26T15:05:57.379Z,475.00
2022-08-26T15:06:58.187Z,473.00
2022-08-26T15:07:57.441Z,473.00
2022-08-26T15:08:57.340Z,473.00
2022-08-26T15:09:57.501Z,474.00
2022-08-26T15:10:56.570Z,474.00
2022-08-26T15:11:59.723Z,475.00
2022-08-26T15:12:56.661Z,473.00
2022-08-26T15:13:56.701Z,473.00
2022-08-26T15:14:56.748Z,472.00
2022-08-26T15:15:56.854Z,470.00
2022-08-26T15:16:59.992Z,468.00
2022-08-26T15:17:56.825Z,469.00
2022-08-26T15:18:56.854Z,467.00
2022-08-26T15:19:56.866Z,466.00
2022-08-26T15:20:56.913Z,466.00
2022-08-26T15:22:00.081Z,465.00
2022-08-26T15:22:57.574Z,465.00
2022-08-26T15:23:56.942Z,465.00
2022-08-26T15:24:56.988Z,462.00
2022-08-26T15:26:00.136Z,463.00
2022-08-26T15:26:57.078Z,464.00
2022-08-26T15:27:57.059Z,464.00
2022-08-26T15:28:58.382Z,464.00
2022-08-26T15:29:57.119Z,462.00
2022-08-26T15:30:58.872Z,464.00
2022-08-26T15:31:57.624Z,464.00
2022-08-26T15:32:57.178Z,465.00
2022-08-26T15:33:58.879Z,466.00
2022-08-26T15:34:59.099Z,466.00
2022-08-26T15:35:57.237Z,467.00
2022-08-26T15:36:57.262Z,466.00
2022-08-26T15:37:59.158Z,465.00
2022-08-26T15:38:59.202Z,465.00
2022-08-26T15:39:57.445Z,465.00
2022-08-26T15:41:02.450Z,462.00
2022-08-26T15:41:57.381Z,463.00
2022-08-26T15:43:17.835Z,463.00
2022-08-26T15:43:57.441Z,460.00
2022-08-26T15:44:58.243Z,462.00
2022-08-26T15:45:59.193Z,459.00
2022-08-26T15:46:58.756Z,457.00
2022-08-26T15:48:01.365Z,457.00
2022-08-26T15:48:57.532Z,455.00
2022-08-26T15:49:57.616Z,456.00
2022-08-26T15:50:59.348Z,455.00
2022-08-26T15:51:57.575Z,454.00
2022-08-26T15:52:57.715Z,454.00
2022-08-26T15:53:59.361Z,453.00
2022-08-26T15:54:57.687Z,452.00
2022-08-26T15:55:59.367Z,452.00
2022-08-26T15:56:59.611Z,450.00
2022-08-26T15:57:57.687Z,449.00
2022-08-26T15:58:57.734Z,450.00
2022-08-26T15:59:57.770Z,450.00
2022-08-26T16:12:45.192Z,432.00
2022-08-26T16:13:43.621Z,445.00
2022-08-26T16:14:44.812Z,448.00
2022-08-26T16:15:43.692Z,454.00
2022-08-26T16:16:45.362Z,452.00
2022-08-26T16:17:43.613Z,454.00
2022-08-26T16:18:43.645Z,453.00
2022-08-26T16:19:45.352Z,452.00
2022-08-26T16:20:43.695Z,453.00
2022-08-26T16:21:43.683Z,450.00
2022-08-26T16:22:43.700Z,452.00
2022-08-26T16:23:45.577Z,453.00
2022-08-26T16:24:44.746Z,454.00
2022-08-26T16:25:45.483Z,457.00
2022-08-26T16:26:45.686Z,459.00
2022-08-26T16:27:43.849Z,458.00
2022-08-26T16:28:43.906Z,457.00
2022-08-26T16:29:43.891Z,457.00
2022-08-26T16:30:45.638Z,458.00
2022-08-26T16:31:43.932Z,457.00
2022-08-26T16:32:43.970Z,455.00
2022-08-26T16:33:44.020Z,453.00
2022-08-26T16:34:46.991Z,455.00
2022-08-26T16:35:45.749Z,455.00
2022-08-26T16:36:45.939Z,457.00
2022-08-26T16:37:45.660Z,456.00
2022-08-26T16:38:44.120Z,455.00
2022-08-26T16:39:44.993Z,455.00
2022-08-26T16:40:45.932Z,454.00
2022-08-26T16:41:44.219Z,455.00
2022-08-26T16:42:45.931Z,455.00
2022-08-26T16:43:44.254Z,458.00
2022-08-26T16:44:44.305Z,456.00
2022-08-26T16:45:45.213Z,457.00
2022-08-26T16:46:46.141Z,457.00
2022-08-26T16:47:46.285Z,458.00
2022-08-26T16:48:44.384Z,458.00
2022-08-26T16:49:46.115Z,457.00
2022-08-26T16:50:44.414Z,458.00
2022-08-26T16:51:46.158Z,458.00
2022-08-26T16:52:46.383Z,458.00
2022-08-26T16:53:44.494Z,456.00
2022-08-26T16:54:46.196Z,456.00
2022-08-26T16:55:44.486Z,457.00
2022-08-26T16:56:46.208Z,457.00
2022-08-26T16:57:46.458Z,457.00
2022-08-26T16:58:46.188Z,458.00
2022-08-26T16:59:46.428Z,457.00
2022-08-26T17:00:46.158Z,458.00
2022-08-26T17:01:46.448Z,455.00
2022-08-26T17:02:44.759Z,454.00
2022-08-26T17:03:46.412Z,453.00
2022-08-26T17:04:46.231Z,453.00
2022-08-26T17:05:44.711Z,453.00
2022-08-26T17:06:44.760Z,453.00
2022-08-26T17:07:44.812Z,450.00
2022-08-26T17:08:46.557Z,450.00
2022-08-26T17:09:44.839Z,450.00
2022-08-26T17:10:44.894Z,449.00
2022-08-26T17:11:44.884Z,451.00
2022-08-26T17:12:46.606Z,450.00
2022-08-26T17:13:46.843Z,452.00
2022-08-26T17:14:46.544Z,452.00
2022-08-26T17:15:46.837Z,454.00
2022-08-26T17:16:46.513Z,450.00
2022-08-26T17:17:46.733Z,450.00
2022-08-26T17:18:46.970Z,452.00
2022-08-26T17:19:47.172Z,451.00
2022-08-26T17:20:46.920Z,453.00
2022-08-26T17:21:45.656Z,451.00
2022-08-26T17:22:46.885Z,448.00
2022-08-26T17:23:45.928Z,446.00
2022-08-26T17:24:45.826Z,443.00
2022-08-26T17:25:46.807Z,443.00
2022-08-26T17:26:48.418Z,444.00
2022-08-26T17:27:46.797Z,444.00
2022-08-26T17:28:45.948Z,447.00
2022-08-26T17:29:46.118Z,448.00
2022-08-26T17:30:46.971Z,452.00
2022-08-26T17:31:47.156Z,453.00
2022-08-26T17:32:46.889Z,450.00
2022-08-26T17:33:50.363Z,452.00
2022-08-26T17:34:46.140Z,452.00
2022-08-26T17:35:45.226Z,452.00
2022-08-26T17:36:46.960Z,453.00
2022-08-26T17:37:45.317Z,454.00
2022-08-26T17:38:47.039Z,452.00
2022-08-26T17:39:47.272Z,451.00
2022-08-26T17:40:45.424Z,452.00
2022-08-26T17:41:47.172Z,452.00
2022-08-26T17:42:45.483Z,453.00
2022-08-26T17:43:45.513Z,453.00
2022-08-26T17:44:46.551Z,455.00
2022-08-26T17:45:45.567Z,454.00
2022-08-26T17:46:47.333Z,452.00
2022-08-26T17:47:45.644Z,453.00
2022-08-26T17:48:45.682Z,453.00
2022-08-26T17:49:45.684Z,452.00
2022-08-26T17:50:49.459Z,450.00
2022-08-26T17:51:47.389Z,449.00
2022-08-26T17:52:45.675Z,448.00
2022-08-26T17:53:45.716Z,448.00
2022-08-26T17:54:45.697Z,450.00
2022-08-26T17:55:45.739Z,454.00
2022-08-26T17:56:47.465Z,457.00
2022-08-26T17:57:53.515Z,455.00
2022-08-26T17:58:48.153Z,453.00
2022-08-26T17:59:47.469Z,452.00
2022-08-26T18:00:45.757Z,451.00
2022-08-26T18:01:45.862Z,447.00
2022-08-26T18:02:45.845Z,448.00
2022-08-26T18:03:47.628Z,448.00
2022-08-26T18:04:45.870Z,448.00
2022-08-26T18:05:45.900Z,446.00
2022-08-26T18:06:47.621Z,447.00
2022-08-26T18:07:45.931Z,449.00
2022-08-26T18:08:45.964Z,449.00
2022-08-26T18:09:46.002Z,449.00
2022-08-26T18:10:46.033Z,451.00
2022-08-26T18:11:47.744Z,451.00
2022-08-26T18:12:47.463Z,453.00
2022-08-26T18:13:47.426Z,455.00
2022-08-26T18:14:47.794Z,454.00
2022-08-26T18:15:46.217Z,452.00
2022-08-26T18:16:46.174Z,452.00
2022-08-26T18:17:46.194Z,455.00
2022-08-26T18:18:46.213Z,457.00
2022-08-26T18:19:47.937Z,456.00
2022-08-26T18:20:46.311Z,455.00
2022-08-26T18:21:46.258Z,454.00
2022-08-26T18:22:47.976Z,452.00
2022-08-26T18:23:46.287Z,450.00
2022-08-26T18:24:58.266Z,450.00
2022-08-26T18:25:48.057Z,453.00
2022-08-26T18:26:46.319Z,451.00
2022-08-26T18:27:48.028Z,450.00
2022-08-26T18:28:46.367Z,452.00
2022-08-26T18:29:46.389Z,451.00
2022-08-26T18:30:46.437Z,451.00
2022-08-26T18:31:46.432Z,453.00
2022-08-26T18:32:47.671Z,455.00
2022-08-26T18:33:46.494Z,455.00
2022-08-26T18:34:48.201Z,455.00
2022-08-26T18:35:46.512Z,455.00
2022-08-26T18:36:46.532Z,453.00
2022-08-26T18:37:46.555Z,454.00
2022-08-26T18:38:46.648Z,457.00
2022-08-26T18:39:48.448Z,456.00
2022-08-26T18:40:46.616Z,457.00
2022-08-26T18:41:46.653Z,456.00
2022-08-26T18:42:47.021Z,457.00
2022-08-26T18:43:46.715Z,456.00
2022-08-26T18:44:48.474Z,455.00
2022-08-26T18:45:48.682Z,456.00
2022-08-26T18:46:48.394Z,455.00
2022-08-26T18:47:48.624Z,454.00
2022-08-26T18:48:51.208Z,454.00
2022-08-26T18:49:48.075Z,453.00
2022-08-26T18:50:50.130Z,453.00
2022-08-26T18:51:46.940Z,451.00
2022-08-26T18:52:46.969Z,451.00
2022-08-26T18:53:48.187Z,451.00
2022-08-26T18:54:48.017Z,451.00
2022-08-26T18:55:47.748Z,449.00
2022-08-26T18:56:47.018Z,450.00
2022-08-26T18:57:47.029Z,452.00
2022-08-26T18:58:47.062Z,450.00
2022-08-26T18:59:47.099Z,450.00
2022-08-26T19:00:48.830Z,450.00
2022-08-26T19:01:47.245Z,451.00
2022-08-26T19:02:48.200Z,451.00
2022-08-26T19:03:47.261Z,451.00
2022-08-26T19:04:49.002Z,451.00
2022-08-26T19:05:47.342Z,450.00
2022-08-26T19:06:49.072Z,450.00
2022-08-26T19:07:48.049Z,447.00
2022-08-26T19:08:49.758Z,447.00
2022-08-26T19:09:47.411Z,448.00
2022-08-26T19:10:47.455Z,451.00
2022-08-26T19:11:47.506Z,449.00
2022-08-26T19:12:47.475Z,448.00
2022-08-26T19:13:49.195Z,449.00
2022-08-26T19:14:47.541Z,449.00
2022-08-26T19:15:49.265Z,449.00
2022-08-26T19:16:47.595Z,448.00
2022-08-26T19:17:48.548Z,447.00
2022-08-26T19:18:48.456Z,447.00
2022-08-26T19:19:48.616Z,448.00
2022-08-26T19:20:49.357Z,449.00
2022-08-26T19:21:48.423Z,452.00
2022-08-26T19:22:48.579Z,454.00
2022-08-26T19:23:47.679Z,455.00
2022-08-26T19:24:49.408Z,455.00
2022-08-26T19:25:48.547Z,458.00
2022-08-26T19:26:48.708Z,459.00
2022-08-26T19:27:48.610Z,455.00
2022-08-26T19:28:48.769Z,454.00
2022-08-26T19:29:49.529Z,454.00
2022-08-26T19:30:51.322Z,454.00
2022-08-26T19:31:48.742Z,454.00
2022-08-26T19:32:47.922Z,454.00
2022-08-26T19:33:49.633Z,454.00
2022-08-26T19:34:49.855Z,456.00
2022-08-26T19:35:49.560Z,456.00
2022-08-26T19:36:47.894Z,455.00
2022-08-26T19:37:47.941Z,454.00
2022-08-26T19:38:47.997Z,454.00
2022-08-26T19:39:48.003Z,453.00
2022-08-26T19:40:49.735Z,452.00
2022-08-26T19:41:48.068Z,453.00
2022-08-26T19:42:48.105Z,451.00
2022-08-26T19:43:48.133Z,450.00
2022-08-26T19:44:48.187Z,449.00
2022-08-26T19:45:49.943Z,447.00
2022-08-26T19:46:48.257Z,445.00
2022-08-26T19:47:49.976Z,445.00
2022-08-26T19:48:52.867Z,443.00
2022-08-26T19:49:48.303Z,446.00
2022-08-26T19:50:50.027Z,447.00
2022-08-26T19:51:48.377Z,447.00
2022-08-26T19:52:48.419Z,448.00
2022-08-26T19:53:49.448Z,446.00
2022-08-26T19:54:48.471Z,446.00
2022-08-26T19:55:50.169Z,446.00
2022-08-26T19:56:50.411Z,445.00
2022-08-26T19:57:48.440Z,444.00
2022-08-26T19:58:48.478Z,446.00
2022-08-26T19:59:50.202Z,446.00
2022-08-26T20:00:48.542Z,445.00
2022-08-26T20:02:01.341Z,446.00
2022-08-26T20:02:48.639Z,448.00
2022-08-26T20:03:48.696Z,449.00
2022-08-26T20:04:48.678Z,448.00
2022-08-26T20:05:48.710Z,450.00
2022-08-26T20:06:55.750Z,453.00
2022-08-26T20:07:48.791Z,453.00
2022-08-26T20:08:50.680Z,453.00